sensor_id;sensor_type;location;lat;lon;timestamp;P1;durP1;ratioP1;P2;durP2;ratioP2
16440;SDS011;8330;-33.858;151.184;2023-03-23T00:01:44;7.80;;;4.10;;
16440;SDS011;8330;-33.858;151.184;2023-03-23T00:04:16;5.03;;;3.50;;
16440;SDS011;8330;-33.858;151.184;2023-03-23T00:06:47;8.10;;;3.83;;
16440;SDS011;8330;-33.858;151.184;2023-03-23T00:09:18;9.82;;;4.13;;
16440;SDS011;8330;-33.858;151.184;2023-03-23T00:11:50;12.30;;;4.45;;
16440;SDS011;8330;-33.858;151.184;2023-03-23T00:14:25;9.75;;;5.05;;
16440;SDS011;8330;-33.858;151.184;2023-03-23T00:16:56;11.60;;;4.82;;
16440;SDS011;8330;-33.858;151.184;2023-03-23T00:19:28;15.88;;;6.90;;
16440;SDS011;8330;-33.858;151.184;2023-03-23T00:22:00;8.52;;;4.95;;
16440;SDS011;8330;-33.858;151.184;2023-03-23T00:24:32;10.32;;;4.60;;
16440;SDS011;8330;-33.858;151.184;2023-03-23T00:27:03;7.60;;;4.45;;
16440;SDS011;8330;-33.858;151.184;2023-03-23T00:29:36;11.50;;;4.57;;
16440;SDS011;8330;-33.858;151.184;2023-03-23T00:32:08;10.35;;;4.90;;
16440;SDS011;8330;-33.858;151.184;2023-03-23T00:34:43;9.05;;;5.00;;
16440;SDS011;8330;-33.858;151.184;2023-03-23T00:37:15;10.25;;;4.97;;
16440;SDS011;8330;-33.858;151.184;2023-03-23T00:39:46;15.05;;;5.72;;
16440;SDS011;8330;-33.858;151.184;2023-03-23T00:42:17;7.70;;;4.75;;
16440;SDS011;8330;-33.858;151.184;2023-03-23T00:44:50;8.80;;;5.05;;
16440;SDS011;8330;-33.858;151.184;2023-03-23T00:47:27;8.90;;;4.78;;
16440;SDS011;8330;-33.858;151.184;2023-03-23T00:50:02;11.57;;;5.20;;
16440;SDS011;8330;-33.858;151.184;2023-03-23T00:52:33;9.68;;;4.85;;
16440;SDS011;8330;-33.858;151.184;2023-03-23T00:55:05;11.48;;;5.25;;
16440;SDS011;8330;-33.858;151.184;2023-03-23T00:57:36;10.38;;;4.85;;
16440;SDS011;8330;-33.858;151.184;2023-03-23T01:00:10;10.55;;;4.80;;
16440;SDS011;8330;-33.858;151.184;2023-03-23T01:02:42;9.70;;;4.18;;
16440;SDS011;8330;-33.858;151.184;2023-03-23T01:05:14;7.82;;;4.72;;
16440;SDS011;8330;-33.858;151.184;2023-03-23T01:07:45;13.23;;;5.60;;
16440;SDS011;8330;-33.858;151.184;2023-03-23T01:10:16;10.75;;;5.10;;
16440;SDS011;8330;-33.858;151.184;2023-03-23T01:12:47;9.20;;;4.75;;
16440;SDS011;8330;-33.858;151.184;2023-03-23T01:15:20;13.93;;;8.07;;
16440;SDS011;8330;-33.858;151.184;2023-03-23T01:17:52;9.48;;;5.18;;
16440;SDS011;8330;-33.858;151.184;2023-03-23T01:20:24;8.52;;;4.38;;
16440;SDS011;8330;-33.858;151.184;2023-03-23T01:22:55;10.15;;;4.30;;
16440;SDS011;8330;-33.858;151.184;2023-03-23T01:25:27;12.68;;;4.20;;
16440;SDS011;8330;-33.858;151.184;2023-03-23T01:27:59;9.05;;;4.38;;
16440;SDS011;8330;-33.858;151.184;2023-03-23T01:30:32;13.07;;;4.47;;
16440;SDS011;8330;-33.858;151.184;2023-03-23T01:33:03;8.25;;;3.97;;
16440;SDS011;8330;-33.858;151.184;2023-03-23T01:35:37;7.78;;;4.25;;
16440;SDS011;8330;-33.858;151.184;2023-03-23T01:38:08;7.20;;;3.70;;
16440;SDS011;8330;-33.858;151.184;2023-03-23T01:40:39;8.52;;;4.18;;
16440;SDS011;8330;-33.858;151.184;2023-03-23T01:43:11;6.18;;;3.45;;
16440;SDS011;8330;-33.858;151.184;2023-03-23T01:45:46;9.52;;;4.07;;
16440;SDS011;8330;-33.858;151.184;2023-03-23T01:48:18;8.32;;;3.58;;
16440;SDS011;8330;-33.858;151.184;2023-03-23T01:50:55;8.80;;;3.88;;
16440;SDS011;8330;-33.858;151.184;2023-03-23T01:53:28;5.43;;;3.70;;
16440;SDS011;8330;-33.858;151.184;2023-03-23T01:56:04;6.70;;;3.40;;
16440;SDS011;8330;-33.858;151.184;2023-03-23T01:58:37;5.68;;;3.35;;
16440;SDS011;8330;-33.858;151.184;2023-03-23T02:01:11;6.85;;;3.22;;
16440;SDS011;8330;-33.858;151.184;2023-03-23T02:03:44;8.35;;;4.07;;
16440;SDS011;8330;-33.858;151.184;2023-03-23T02:06:17;8.02;;;3.42;;
16440;SDS011;8330;-33.858;151.184;2023-03-23T02:08:48;6.15;;;3.72;;
16440;SDS011;8330;-33.858;151.184;2023-03-23T02:11:21;5.80;;;3.20;;
16440;SDS011;8330;-33.858;151.184;2023-03-23T02:13:52;6.88;;;3.30;;
16440;SDS011;8330;-33.858;151.184;2023-03-23T02:16:31;5.57;;;3.40;;
16440;SDS011;8330;-33.858;151.184;2023-03-23T02:19:18;7.70;;;3.63;;
16440;SDS011;8330;-33.858;151.184;2023-03-23T02:28:26;7.60;;;3.47;;
16440;SDS011;8330;-33.858;151.184;2023-03-23T02:31:31;8.73;;;4.05;;
16440;SDS011;8330;-33.858;151.184;2023-03-23T02:34:19;7.88;;;3.60;;
16440;SDS011;8330;-33.858;151.184;2023-03-23T02:36:57;6.15;;;3.67;;
16440;SDS011;8330;-33.858;151.184;2023-03-23T02:39:31;8.70;;;4.05;;
16440;SDS011;8330;-33.858;151.184;2023-03-23T02:42:07;7.85;;;3.90;;
16440;SDS011;8330;-33.858;151.184;2023-03-23T02:44:41;6.00;;;3.83;;
16440;SDS011;8330;-33.858;151.184;2023-03-23T02:47:14;10.18;;;3.65;;
16440;SDS011;8330;-33.858;151.184;2023-03-23T02:49:51;6.68;;;3.67;;
16440;SDS011;8330;-33.858;151.184;2023-03-23T02:52:26;7.43;;;3.67;;
16440;SDS011;8330;-33.858;151.184;2023-03-23T02:54:59;12.32;;;3.80;;
16440;SDS011;8330;-33.858;151.184;2023-03-23T02:57:31;9.32;;;3.67;;
16440;SDS011;8330;-33.858;151.184;2023-03-23T03:00:04;10.55;;;3.85;;
16440;SDS011;8330;-33.858;151.184;2023-03-23T03:02:53;8.95;;;4.03;;
16440;SDS011;8330;-33.858;151.184;2023-03-23T03:05:29;9.77;;;4.28;;
16440;SDS011;8330;-33.858;151.184;2023-03-23T03:08:10;9.60;;;3.80;;
16440;SDS011;8330;-33.858;151.184;2023-03-23T03:10:52;7.57;;;4.10;;
16440;SDS011;8330;-33.858;151.184;2023-03-23T03:13:32;9.40;;;4.05;;
16440;SDS011;8330;-33.858;151.184;2023-03-23T03:16:12;7.43;;;4.30;;
16440;SDS011;8330;-33.858;151.184;2023-03-23T03:18:54;7.68;;;4.05;;
16440;SDS011;8330;-33.858;151.184;2023-03-23T03:21:30;7.00;;;3.70;;
16440;SDS011;8330;-33.858;151.184;2023-03-23T03:24:05;5.60;;;3.20;;
16440;SDS011;8330;-33.858;151.184;2023-03-23T03:26:38;7.55;;;3.50;;
16440;SDS011;8330;-33.858;151.184;2023-03-23T03:29:13;5.80;;;3.20;;
16440;SDS011;8330;-33.858;151.184;2023-03-23T03:31:46;5.82;;;3.10;;
16440;SDS011;8330;-33.858;151.184;2023-03-23T03:34:21;6.95;;;3.42;;
16440;SDS011;8330;-33.858;151.184;2023-03-23T03:36:54;5.65;;;3.80;;
16440;SDS011;8330;-33.858;151.184;2023-03-23T03:39:31;5.55;;;2.80;;
16440;SDS011;8330;-33.858;151.184;2023-03-23T03:42:05;4.45;;;2.90;;
16440;SDS011;8330;-33.858;151.184;2023-03-23T03:44:36;6.50;;;3.20;;
16440;SDS011;8330;-33.858;151.184;2023-03-23T03:47:07;7.00;;;3.33;;
16440;SDS011;8330;-33.858;151.184;2023-03-23T03:49:38;10.38;;;4.30;;
16440;SDS011;8330;-33.858;151.184;2023-03-23T03:52:13;9.23;;;3.83;;
16440;SDS011;8330;-33.858;151.184;2023-03-23T03:54:44;6.75;;;3.35;;
16440;SDS011;8330;-33.858;151.184;2023-03-23T03:57:16;7.13;;;3.90;;
16440;SDS011;8330;-33.858;151.184;2023-03-23T03:59:47;14.00;;;4.25;;
16440;SDS011;8330;-33.858;151.184;2023-03-23T04:02:18;8.60;;;3.60;;
16440;SDS011;8330;-33.858;151.184;2023-03-23T04:04:50;10.45;;;4.07;;
16440;SDS011;8330;-33.858;151.184;2023-03-23T04:07:23;5.78;;;3.35;;
16440;SDS011;8330;-33.858;151.184;2023-03-23T04:09:55;9.95;;;4.03;;
16440;SDS011;8330;-33.858;151.184;2023-03-23T04:12:26;6.90;;;3.47;;
16440;SDS011;8330;-33.858;151.184;2023-03-23T04:14:57;8.07;;;3.40;;
16440;SDS011;8330;-33.858;151.184;2023-03-23T04:17:29;7.45;;;3.55;;
16440;SDS011;8330;-33.858;151.184;2023-03-23T04:20:00;6.07;;;3.20;;
16440;SDS011;8330;-33.858;151.184;2023-03-23T04:22:43;5.93;;;2.95;;
16440;SDS011;8330;-33.858;151.184;2023-03-23T04:25:15;7.75;;;3.30;;
16440;SDS011;8330;-33.858;151.184;2023-03-23T04:27:49;7.65;;;3.30;;
16440;SDS011;8330;-33.858;151.184;2023-03-23T04:30:22;9.98;;;3.63;;
16440;SDS011;8330;-33.858;151.184;2023-03-23T04:32:53;6.93;;;3.70;;
16440;SDS011;8330;-33.858;151.184;2023-03-23T04:35:27;8.55;;;3.28;;
16440;SDS011;8330;-33.858;151.184;2023-03-23T04:38:00;5.28;;;2.85;;
16440;SDS011;8330;-33.858;151.184;2023-03-23T04:40:31;5.75;;;2.95;;
16440;SDS011;8330;-33.858;151.184;2023-03-23T04:43:05;7.38;;;2.92;;
16440;SDS011;8330;-33.858;151.184;2023-03-23T04:45:38;7.93;;;2.70;;
16440;SDS011;8330;-33.858;151.184;2023-03-23T04:48:12;6.63;;;2.80;;
16440;SDS011;8330;-33.858;151.184;2023-03-23T04:50:43;6.72;;;2.83;;
16440;SDS011;8330;-33.858;151.184;2023-03-23T04:53:16;9.00;;;2.92;;
16440;SDS011;8330;-33.858;151.184;2023-03-23T04:55:48;5.10;;;2.50;;
16440;SDS011;8330;-33.858;151.184;2023-03-23T04:58:20;3.55;;;2.50;;
16440;SDS011;8330;-33.858;151.184;2023-03-23T05:00:51;4.38;;;2.50;;
16440;SDS011;8330;-33.858;151.184;2023-03-23T05:03:23;4.78;;;2.40;;
16440;SDS011;8330;-33.858;151.184;2023-03-23T05:05:54;9.57;;;2.75;;
16440;SDS011;8330;-33.858;151.184;2023-03-23T05:08:27;5.13;;;2.42;;
16440;SDS011;8330;-33.858;151.184;2023-03-23T05:10:59;5.90;;;2.38;;
16440;SDS011;8330;-33.858;151.184;2023-03-23T05:13:31;9.70;;;2.95;;
16440;SDS011;8330;-33.858;151.184;2023-03-23T05:16:05;3.50;;;2.38;;
16440;SDS011;8330;-33.858;151.184;2023-03-23T05:18:36;8.50;;;2.50;;
16440;SDS011;8330;-33.858;151.184;2023-03-23T05:21:08;9.70;;;2.70;;
16440;SDS011;8330;-33.858;151.184;2023-03-23T05:23:41;4.82;;;2.70;;
16440;SDS011;8330;-33.858;151.184;2023-03-23T05:26:13;7.40;;;3.00;;
16440;SDS011;8330;-33.858;151.184;2023-03-23T05:28:47;7.20;;;2.90;;
16440;SDS011;8330;-33.858;151.184;2023-03-23T05:31:19;7.38;;;2.50;;
16440;SDS011;8330;-33.858;151.184;2023-03-23T05:33:51;4.78;;;2.70;;
16440;SDS011;8330;-33.858;151.184;2023-03-23T05:36:22;5.65;;;2.17;;
16440;SDS011;8330;-33.858;151.184;2023-03-23T05:38:56;5.22;;;2.50;;
16440;SDS011;8330;-33.858;151.184;2023-03-23T05:41:29;6.50;;;2.45;;
16440;SDS011;8330;-33.858;151.184;2023-03-23T05:44:00;5.95;;;2.40;;
16440;SDS011;8330;-33.858;151.184;2023-03-23T05:46:32;4.75;;;2.47;;
16440;SDS011;8330;-33.858;151.184;2023-03-23T05:49:03;3.67;;;2.03;;
16440;SDS011;8330;-33.858;151.184;2023-03-23T05:51:35;4.30;;;2.30;;
16440;SDS011;8330;-33.858;151.184;2023-03-23T05:54:08;4.57;;;2.30;;
16440;SDS011;8330;-33.858;151.184;2023-03-23T05:56:39;8.00;;;2.80;;
16440;SDS011;8330;-33.858;151.184;2023-03-23T05:59:10;5.55;;;2.55;;
16440;SDS011;8330;-33.858;151.184;2023-03-23T06:01:42;4.75;;;2.58;;
16440;SDS011;8330;-33.858;151.184;2023-03-23T06:04:13;3.55;;;2.25;;
16440;SDS011;8330;-33.858;151.184;2023-03-23T06:06:44;5.45;;;2.45;;
16440;SDS011;8330;-33.858;151.184;2023-03-23T06:09:17;3.92;;;1.95;;
16440;SDS011;8330;-33.858;151.184;2023-03-23T06:11:49;4.70;;;1.73;;
16440;SDS011;8330;-33.858;151.184;2023-03-23T06:14:20;3.95;;;1.80;;
16440;SDS011;8330;-33.858;151.184;2023-03-23T06:16:55;4.18;;;1.80;;
16440;SDS011;8330;-33.858;151.184;2023-03-23T06:19:26;3.80;;;1.90;;
16440;SDS011;8330;-33.858;151.184;2023-03-23T06:21:57;3.83;;;1.80;;
16440;SDS011;8330;-33.858;151.184;2023-03-23T06:24:30;4.55;;;2.00;;
16440;SDS011;8330;-33.858;151.184;2023-03-23T06:27:01;8.25;;;2.05;;
16440;SDS011;8330;-33.858;151.184;2023-03-23T06:29:33;2.92;;;1.67;;
16440;SDS011;8330;-33.858;151.184;2023-03-23T06:32:06;7.97;;;2.88;;
16440;SDS011;8330;-33.858;151.184;2023-03-23T06:34:39;2.83;;;1.90;;
16440;SDS011;8330;-33.858;151.184;2023-03-23T06:37:12;3.97;;;1.73;;
16440;SDS011;8330;-33.858;151.184;2023-03-23T06:39:46;3.35;;;1.92;;
16440;SDS011;8330;-33.858;151.184;2023-03-23T06:42:22;6.15;;;2.33;;
16440;SDS011;8330;-33.858;151.184;2023-03-23T06:44:53;5.15;;;2.10;;
16440;SDS011;8330;-33.858;151.184;2023-03-23T06:47:24;4.07;;;2.10;;
16440;SDS011;8330;-33.858;151.184;2023-03-23T06:49:56;7.63;;;2.08;;
16440;SDS011;8330;-33.858;151.184;2023-03-23T06:52:28;6.20;;;2.10;;
16440;SDS011;8330;-33.858;151.184;2023-03-23T06:55:01;5.13;;;1.70;;
16440;SDS011;8330;-33.858;151.184;2023-03-23T06:57:35;4.43;;;1.83;;
16440;SDS011;8330;-33.858;151.184;2023-03-23T07:00:06;8.13;;;3.40;;
16440;SDS011;8330;-33.858;151.184;2023-03-23T07:02:40;8.60;;;3.05;;
16440;SDS011;8330;-33.858;151.184;2023-03-23T07:05:11;5.30;;;2.10;;
16440;SDS011;8330;-33.858;151.184;2023-03-23T07:07:43;7.82;;;2.13;;
16440;SDS011;8330;-33.858;151.184;2023-03-23T07:10:19;6.18;;;2.60;;
16440;SDS011;8330;-33.858;151.184;2023-03-23T07:12:50;4.63;;;1.98;;
16440;SDS011;8330;-33.858;151.184;2023-03-23T07:15:21;5.93;;;2.30;;
16440;SDS011;8330;-33.858;151.184;2023-03-23T07:17:52;8.73;;;2.53;;
16440;SDS011;8330;-33.858;151.184;2023-03-23T07:20:26;6.95;;;2.40;;
16440;SDS011;8330;-33.858;151.184;2023-03-23T07:22:57;5.80;;;2.28;;
16440;SDS011;8330;-33.858;151.184;2023-03-23T07:25:33;5.70;;;2.55;;
16440;SDS011;8330;-33.858;151.184;2023-03-23T07:28:04;5.72;;;2.10;;
16440;SDS011;8330;-33.858;151.184;2023-03-23T07:30:35;4.60;;;2.20;;
16440;SDS011;8330;-33.858;151.184;2023-03-23T07:33:07;5.93;;;2.60;;
16440;SDS011;8330;-33.858;151.184;2023-03-23T07:35:38;3.85;;;2.00;;
16440;SDS011;8330;-33.858;151.184;2023-03-23T07:38:09;4.80;;;2.30;;
16440;SDS011;8330;-33.858;151.184;2023-03-23T07:40:42;7.18;;;2.10;;
16440;SDS011;8330;-33.858;151.184;2023-03-23T07:43:14;4.32;;;1.70;;
16440;SDS011;8330;-33.858;151.184;2023-03-23T07:45:45;7.22;;;2.10;;
16440;SDS011;8330;-33.858;151.184;2023-03-23T07:48:16;6.07;;;2.30;;
16440;SDS011;8330;-33.858;151.184;2023-03-23T07:50:47;4.82;;;1.77;;
16440;SDS011;8330;-33.858;151.184;2023-03-23T07:53:18;6.95;;;2.00;;
16440;SDS011;8330;-33.858;151.184;2023-03-23T07:55:52;5.78;;;1.73;;
16440;SDS011;8330;-33.858;151.184;2023-03-23T07:58:23;3.83;;;1.92;;
16440;SDS011;8330;-33.858;151.184;2023-03-23T08:00:54;5.05;;;1.70;;
16440;SDS011;8330;-33.858;151.184;2023-03-23T08:03:26;6.28;;;1.88;;
16440;SDS011;8330;-33.858;151.184;2023-03-23T08:05:58;3.38;;;1.80;;
16440;SDS011;8330;-33.858;151.184;2023-03-23T08:08:29;4.32;;;1.90;;
16440;SDS011;8330;-33.858;151.184;2023-03-23T08:11:03;4.28;;;1.67;;
16440;SDS011;8330;-33.858;151.184;2023-03-23T08:13:35;4.57;;;2.20;;
16440;SDS011;8330;-33.858;151.184;2023-03-23T08:16:06;3.38;;;1.70;;
16440;SDS011;8330;-33.858;151.184;2023-03-23T08:18:37;4.53;;;1.70;;
16440;SDS011;8330;-33.858;151.184;2023-03-23T08:21:09;5.90;;;2.20;;
16440;SDS011;8330;-33.858;151.184;2023-03-23T08:23:43;3.92;;;1.63;;
16440;SDS011;8330;-33.858;151.184;2023-03-23T08:26:16;3.95;;;1.80;;
16440;SDS011;8330;-33.858;151.184;2023-03-23T08:28:47;3.42;;;1.70;;
16440;SDS011;8330;-33.858;151.184;2023-03-23T08:31:24;3.25;;;1.90;;
16440;SDS011;8330;-33.858;151.184;2023-03-23T08:33:55;3.72;;;2.03;;
16440;SDS011;8330;-33.858;151.184;2023-03-23T08:36:26;5.65;;;2.53;;
16440;SDS011;8330;-33.858;151.184;2023-03-23T08:38:58;4.38;;;2.30;;
16440;SDS011;8330;-33.858;151.184;2023-03-23T08:41:33;5.38;;;2.35;;
16440;SDS011;8330;-33.858;151.184;2023-03-23T08:44:04;5.65;;;2.25;;
16440;SDS011;8330;-33.858;151.184;2023-03-23T08:46:35;4.57;;;2.13;;
16440;SDS011;8330;-33.858;151.184;2023-03-23T08:49:06;6.57;;;2.63;;
16440;SDS011;8330;-33.858;151.184;2023-03-23T08:51:38;4.93;;;2.38;;
16440;SDS011;8330;-33.858;151.184;2023-03-23T08:54:09;5.55;;;2.33;;
16440;SDS011;8330;-33.858;151.184;2023-03-23T08:56:42;4.93;;;2.20;;
16440;SDS011;8330;-33.858;151.184;2023-03-23T08:59:14;3.65;;;2.17;;
16440;SDS011;8330;-33.858;151.184;2023-03-23T09:01:45;3.47;;;1.75;;
16440;SDS011;8330;-33.858;151.184;2023-03-23T09:04:16;3.22;;;1.50;;
16440;SDS011;8330;-33.858;151.184;2023-03-23T09:06:47;3.20;;;1.40;;
16440;SDS011;8330;-33.858;151.184;2023-03-23T09:09:18;2.25;;;1.30;;
16440;SDS011;8330;-33.858;151.184;2023-03-23T09:11:51;1.88;;;1.20;;
16440;SDS011;8330;-33.858;151.184;2023-03-23T09:14:23;1.88;;;1.20;;
16440;SDS011;8330;-33.858;151.184;2023-03-23T09:16:55;2.20;;;1.30;;
16440;SDS011;8330;-33.858;151.184;2023-03-23T09:19:26;3.42;;;1.30;;
16440;SDS011;8330;-33.858;151.184;2023-03-23T09:21:59;2.05;;;1.02;;
16440;SDS011;8330;-33.858;151.184;2023-03-23T09:24:30;1.98;;;1.00;;
16440;SDS011;8330;-33.858;151.184;2023-03-23T09:27:04;2.80;;;1.10;;
16440;SDS011;8330;-33.858;151.184;2023-03-23T09:29:35;1.30;;;0.93;;
16440;SDS011;8330;-33.858;151.184;2023-03-23T09:32:07;3.13;;;1.05;;
16440;SDS011;8330;-33.858;151.184;2023-03-23T09:34:39;2.35;;;1.20;;
16440;SDS011;8330;-33.858;151.184;2023-03-23T09:37:11;2.33;;;1.33;;
16440;SDS011;8330;-33.858;151.184;2023-03-23T09:39:43;2.15;;;1.20;;
16440;SDS011;8330;-33.858;151.184;2023-03-23T09:42:21;1.40;;;0.90;;
16440;SDS011;8330;-33.858;151.184;2023-03-23T09:45:05;1.15;;;0.93;;
16440;SDS011;8330;-33.858;151.184;2023-03-23T09:47:46;1.80;;;0.90;;
16440;SDS011;8330;-33.858;151.184;2023-03-23T09:50:30;2.35;;;1.00;;
16440;SDS011;8330;-33.858;151.184;2023-03-23T09:53:05;3.05;;;1.08;;
16440;SDS011;8330;-33.858;151.184;2023-03-23T09:55:41;1.20;;;0.80;;
16440;SDS011;8330;-33.858;151.184;2023-03-23T09:58:18;1.90;;;0.98;;
16440;SDS011;8330;-33.858;151.184;2023-03-23T10:00:54;1.42;;;0.88;;
16440;SDS011;8330;-33.858;151.184;2023-03-23T10:03:30;1.63;;;0.80;;
16440;SDS011;8330;-33.858;151.184;2023-03-23T10:06:07;2.28;;;0.80;;
16440;SDS011;8330;-33.858;151.184;2023-03-23T10:08:41;1.83;;;1.00;;
16440;SDS011;8330;-33.858;151.184;2023-03-23T10:11:16;1.38;;;0.80;;
16440;SDS011;8330;-33.858;151.184;2023-03-23T10:14:05;1.55;;;0.95;;
16440;SDS011;8330;-33.858;151.184;2023-03-23T10:16:42;1.42;;;1.00;;
16440;SDS011;8330;-33.858;151.184;2023-03-23T10:19:29;1.92;;;1.00;;
16440;SDS011;8330;-33.858;151.184;2023-03-23T10:22:04;1.60;;;1.25;;
16440;SDS011;8330;-33.858;151.184;2023-03-23T10:24:40;1.25;;;0.90;;
16440;SDS011;8330;-33.858;151.184;2023-03-23T10:27:23;0.88;;;0.70;;
16440;SDS011;8330;-33.858;151.184;2023-03-23T10:30:02;1.95;;;1.00;;
16440;SDS011;8330;-33.858;151.184;2023-03-23T10:32:44;1.20;;;0.98;;
16440;SDS011;8330;-33.858;151.184;2023-03-23T10:35:20;2.10;;;1.00;;
16440;SDS011;8330;-33.858;151.184;2023-03-23T10:37:55;2.08;;;1.02;;
16440;SDS011;8330;-33.858;151.184;2023-03-23T10:40:29;1.00;;;0.80;;
16440;SDS011;8330;-33.858;151.184;2023-03-23T10:43:01;1.40;;;0.95;;
16440;SDS011;8330;-33.858;151.184;2023-03-23T10:45:34;2.30;;;1.10;;
16440;SDS011;8330;-33.858;151.184;2023-03-23T10:48:07;1.77;;;1.00;;
16440;SDS011;8330;-33.858;151.184;2023-03-23T10:50:42;1.33;;;1.00;;
16440;SDS011;8330;-33.858;151.184;2023-03-23T10:53:18;3.33;;;1.00;;
16440;SDS011;8330;-33.858;151.184;2023-03-23T10:55:51;1.35;;;1.10;;
16440;SDS011;8330;-33.858;151.184;2023-03-23T10:58:23;1.75;;;0.98;;
16440;SDS011;8330;-33.858;151.184;2023-03-23T11:01:00;2.85;;;1.13;;
16440;SDS011;8330;-33.858;151.184;2023-03-23T11:03:38;1.83;;;1.10;;
16440;SDS011;8330;-33.858;151.184;2023-03-23T11:06:11;1.77;;;0.85;;
16440;SDS011;8330;-33.858;151.184;2023-03-23T11:08:49;1.63;;;0.90;;
16440;SDS011;8330;-33.858;151.184;2023-03-23T11:11:25;2.38;;;1.17;;
16440;SDS011;8330;-33.858;151.184;2023-03-23T11:13:57;3.17;;;1.05;;
16440;SDS011;8330;-33.858;151.184;2023-03-23T11:16:32;1.42;;;1.00;;
16440;SDS011;8330;-33.858;151.184;2023-03-23T11:19:12;1.55;;;1.10;;
16440;SDS011;8330;-33.858;151.184;2023-03-23T11:21:47;1.05;;;0.95;;
16440;SDS011;8330;-33.858;151.184;2023-03-23T11:24:21;2.17;;;1.20;;
16440;SDS011;8330;-33.858;151.184;2023-03-23T11:26:59;2.00;;;1.17;;
16440;SDS011;8330;-33.858;151.184;2023-03-23T11:29:33;2.08;;;1.17;;
16440;SDS011;8330;-33.858;151.184;2023-03-23T11:32:09;1.90;;;1.20;;
16440;SDS011;8330;-33.858;151.184;2023-03-23T11:34:47;2.45;;;1.20;;
16440;SDS011;8330;-33.858;151.184;2023-03-23T11:37:29;4.00;;;1.40;;
16440;SDS011;8330;-33.858;151.184;2023-03-23T11:40:14;2.65;;;1.42;;
16440;SDS011;8330;-33.858;151.184;2023-03-23T11:42:46;1.50;;;1.30;;
16440;SDS011;8330;-33.858;151.184;2023-03-23T11:45:19;3.03;;;1.40;;
16440;SDS011;8330;-33.858;151.184;2023-03-23T11:48:06;2.55;;;1.30;;
16440;SDS011;8330;-33.858;151.184;2023-03-23T11:50:50;2.42;;;1.30;;
16440;SDS011;8330;-33.858;151.184;2023-03-23T11:53:30;2.88;;;1.20;;
16440;SDS011;8330;-33.858;151.184;2023-03-23T11:56:12;1.63;;;1.10;;
16440;SDS011;8330;-33.858;151.184;2023-03-23T11:58:49;4.07;;;1.50;;
16440;SDS011;8330;-33.858;151.184;2023-03-23T12:01:24;2.13;;;1.40;;
16440;SDS011;8330;-33.858;151.184;2023-03-23T12:07:16;1.98;;;1.25;;
16440;SDS011;8330;-33.858;151.184;2023-03-23T12:10:10;2.97;;;1.63;;
16440;SDS011;8330;-33.858;151.184;2023-03-23T12:13:03;3.63;;;1.60;;
16440;SDS011;8330;-33.858;151.184;2023-03-23T12:15:47;5.45;;;1.60;;
16440;SDS011;8330;-33.858;151.184;2023-03-23T12:18:32;2.33;;;1.38;;
16440;SDS011;8330;-33.858;151.184;2023-03-23T12:21:12;2.67;;;1.58;;
16440;SDS011;8330;-33.858;151.184;2023-03-23T12:23:50;2.03;;;1.40;;
16440;SDS011;8330;-33.858;151.184;2023-03-23T12:26:27;3.15;;;1.85;;
16440;SDS011;8330;-33.858;151.184;2023-03-23T12:29:08;3.40;;;1.83;;
16440;SDS011;8330;-33.858;151.184;2023-03-23T12:31:55;4.60;;;2.00;;
16440;SDS011;8330;-33.858;151.184;2023-03-23T12:34:40;4.25;;;2.22;;
16440;SDS011;8330;-33.858;151.184;2023-03-23T12:37:20;4.00;;;2.15;;
16440;SDS011;8330;-33.858;151.184;2023-03-23T12:40:19;4.05;;;2.35;;
16440;SDS011;8330;-33.858;151.184;2023-03-23T12:43:15;3.42;;;2.28;;
16440;SDS011;8330;-33.858;151.184;2023-03-23T12:45:57;2.97;;;2.08;;
16440;SDS011;8330;-33.858;151.184;2023-03-23T12:48:40;3.22;;;2.22;;
16440;SDS011;8330;-33.858;151.184;2023-03-23T12:51:21;4.63;;;2.35;;
16440;SDS011;8330;-33.858;151.184;2023-03-23T12:53:58;2.38;;;1.90;;
16440;SDS011;8330;-33.858;151.184;2023-03-23T12:56:37;3.05;;;2.13;;
16440;SDS011;8330;-33.858;151.184;2023-03-23T12:59:19;4.00;;;2.25;;
16440;SDS011;8330;-33.858;151.184;2023-03-23T13:01:56;4.10;;;2.35;;
16440;SDS011;8330;-33.858;151.184;2023-03-23T13:04:32;3.38;;;2.08;;
16440;SDS011;8330;-33.858;151.184;2023-03-23T13:07:09;4.55;;;2.08;;
16440;SDS011;8330;-33.858;151.184;2023-03-23T13:09:47;2.25;;;1.88;;
16440;SDS011;8330;-33.858;151.184;2023-03-23T13:12:28;4.90;;;2.03;;
16440;SDS011;8330;-33.858;151.184;2023-03-23T13:15:06;4.15;;;2.30;;
16440;SDS011;8330;-33.858;151.184;2023-03-23T13:17:48;3.22;;;2.30;;
16440;SDS011;8330;-33.858;151.184;2023-03-23T13:23:22;5.00;;;2.40;;
16440;SDS011;8330;-33.858;151.184;2023-03-23T13:25:55;3.70;;;2.45;;
16440;SDS011;8330;-33.858;151.184;2023-03-23T13:28:34;6.70;;;2.70;;
16440;SDS011;8330;-33.858;151.184;2023-03-23T13:31:20;5.55;;;2.78;;
16440;SDS011;8330;-33.858;151.184;2023-03-23T13:34:02;6.05;;;3.05;;
16440;SDS011;8330;-33.858;151.184;2023-03-23T13:36:35;5.07;;;3.00;;
16440;SDS011;8330;-33.858;151.184;2023-03-23T13:39:16;5.00;;;2.83;;
16440;SDS011;8330;-33.858;151.184;2023-03-23T13:41:59;4.35;;;2.90;;
16440;SDS011;8330;-33.858;151.184;2023-03-23T13:44:43;4.97;;;2.78;;
16440;SDS011;8330;-33.858;151.184;2023-03-23T13:47:27;4.80;;;2.90;;
16440;SDS011;8330;-33.858;151.184;2023-03-23T13:50:09;4.70;;;2.92;;
16440;SDS011;8330;-33.858;151.184;2023-03-23T13:52:49;4.80;;;3.05;;
16440;SDS011;8330;-33.858;151.184;2023-03-23T13:55:29;4.40;;;2.75;;
16440;SDS011;8330;-33.858;151.184;2023-03-23T13:58:20;5.25;;;2.72;;
16440;SDS011;8330;-33.858;151.184;2023-03-23T14:03:45;4.38;;;2.80;;
16440;SDS011;8330;-33.858;151.184;2023-03-23T14:06:19;4.05;;;2.78;;
16440;SDS011;8330;-33.858;151.184;2023-03-23T14:08:53;4.38;;;2.75;;
16440;SDS011;8330;-33.858;151.184;2023-03-23T14:11:26;4.07;;;2.60;;
16440;SDS011;8330;-33.858;151.184;2023-03-23T14:14:02;4.20;;;2.60;;
16440;SDS011;8330;-33.858;151.184;2023-03-23T14:16:40;5.05;;;2.97;;
16440;SDS011;8330;-33.858;151.184;2023-03-23T14:19:17;4.40;;;2.70;;
16440;SDS011;8330;-33.858;151.184;2023-03-23T14:21:52;3.97;;;2.50;;
16440;SDS011;8330;-33.858;151.184;2023-03-23T14:24:24;4.53;;;2.70;;
16440;SDS011;8330;-33.858;151.184;2023-03-23T14:27:01;3.40;;;2.50;;
16440;SDS011;8330;-33.858;151.184;2023-03-23T14:29:38;3.25;;;2.60;;
16440;SDS011;8330;-33.858;151.184;2023-03-23T14:32:13;3.03;;;2.40;;
16440;SDS011;8330;-33.858;151.184;2023-03-23T14:34:52;4.70;;;2.50;;
16440;SDS011;8330;-33.858;151.184;2023-03-23T14:37:24;4.43;;;2.45;;
16440;SDS011;8330;-33.858;151.184;2023-03-23T14:39:55;5.13;;;2.60;;
16440;SDS011;8330;-33.858;151.184;2023-03-23T14:42:30;3.85;;;2.67;;
16440;SDS011;8330;-33.858;151.184;2023-03-23T14:45:04;3.67;;;2.70;;
16440;SDS011;8330;-33.858;151.184;2023-03-23T14:47:39;3.63;;;2.28;;
16440;SDS011;8330;-33.858;151.184;2023-03-23T14:50:22;5.63;;;2.60;;
16440;SDS011;8330;-33.858;151.184;2023-03-23T14:52:57;3.08;;;2.60;;
16440;SDS011;8330;-33.858;151.184;2023-03-23T14:55:32;4.57;;;2.80;;
16440;SDS011;8330;-33.858;151.184;2023-03-23T14:58:07;2.70;;;2.35;;
16440;SDS011;8330;-33.858;151.184;2023-03-23T15:00:43;4.13;;;2.47;;
16440;SDS011;8330;-33.858;151.184;2023-03-23T15:03:19;2.92;;;2.60;;
16440;SDS011;8330;-33.858;151.184;2023-03-23T15:05:53;3.92;;;2.53;;
16440;SDS011;8330;-33.858;151.184;2023-03-23T15:08:27;5.28;;;3.20;;
16440;SDS011;8330;-33.858;151.184;2023-03-23T15:11:02;5.55;;;3.00;;
16440;SDS011;8330;-33.858;151.184;2023-03-23T15:13:36;5.65;;;2.88;;
16440;SDS011;8330;-33.858;151.184;2023-03-23T15:16:14;4.03;;;2.90;;
16440;SDS011;8330;-33.858;151.184;2023-03-23T15:18:51;5.32;;;3.33;;
16440;SDS011;8330;-33.858;151.184;2023-03-23T15:21:27;8.88;;;4.13;;